Time;durP1;ratioP1;P1;durP2;ratioP2;P2;SDS_P1;SDS_P2;PMS_P1;PMS_P2;Temp;Humidity;BMP_temperature;BMP_pressure;BME280_temperature;BME280_humidity;BME280_pressure;Samples;Min_cycle;Max_cycle;Signal;HPM_P1;HPM_P2
2023/07/09 00:01:05;;;;;;;0.13;0.13;;;16.90;99.90;;;;;;5061518;28;20032;-74
2023/07/09 00:03:31;;;;;;;0.10;0.10;;;16.80;99.90;;;;;;5061704;28;20682;-75
2023/07/09 00:05:57;;;;;;;0.10;0.10;;;16.70;99.90;;;;;;5060814;28;20036;-74
2023/07/09 00:08:29;;;;;;;0.10;0.10;;;16.70;99.90;;;;;;5043464;28;20029;-75
2023/07/09 00:10:56;;;;;;;0.13;0.13;;;16.90;99.90;;;;;;5061486;28;20670;-73
2023/07/09 00:13:24;;;;;;;0.95;0.95;;;16.80;99.90;;;;;;5061058;28;20025;-74
2023/07/09 00:15:50;;;;;;;0.80;0.73;;;16.90;99.90;;;;;;5060690;28;20074;-74
2023/07/09 00:18:16;;;;;;;0.30;0.30;;;16.80;99.90;;;;;;5060392;28;20016;-74
2023/07/09 00:20:43;;;;;;;0.73;0.73;;;17.10;99.90;;;;;;5060230;28;20039;-75
2023/07/09 00:23:13;;;;;;;0.57;0.55;;;17.40;99.90;;;;;;5060262;28;20052;-75
2023/07/09 00:25:44;;;;;;;0.10;0.10;;;17.20;99.90;;;;;;5060979;28;20694;-80
2023/07/09 00:28:17;;;;;;;0.10;0.10;;;17.10;99.90;;;;;;5060057;28;20005;-75
2023/07/09 00:30:45;;;;;;;0.00;0.00;;;17.30;99.90;;;;;;5060146;28;20094;-73
2023/07/09 00:33:14;;;;;;;0.25;0.25;;;17.40;99.90;;;;;;5060440;28;20035;-75
2023/07/09 00:35:41;;;;;;;0.20;0.20;;;17.30;99.90;;;;;;5060912;28;20639;-75
2023/07/09 00:38:14;;;;;;;0.10;0.10;;;17.20;99.90;;;;;;5060761;28;20024;-75
2023/07/09 00:40:47;;;;;;;0.10;0.10;;;18.70;99.90;;;;;;5060184;28;20024;-75
2023/07/09 00:43:16;;;;;;;0.10;0.10;;;14.60;99.90;;;;;;5042455;28;20031;-72
2023/07/09 00:45:42;;;;;;;0.28;0.28;;;17.20;99.90;;;;;;5060003;28;20039;-84
2023/07/09 00:48:15;;;;;;;0.10;0.10;;;16.90;99.90;;;;;;5041955;28;20021;-76
2023/07/09 00:50:47;;;;;;;0.17;0.17;;;16.80;99.90;;;;;;5060348;28;20123;-76
2023/07/09 00:53:31;;;;;;;0.17;0.17;;;16.70;99.90;;;;;;5042503;28;20028;-78
2023/07/09 00:56:08;;;;;;;0.10;0.10;;;16.60;99.90;;;;;;5061318;28;20233;-78
2023/07/09 00:58:37;;;;;;;1.38;1.33;;;16.80;99.90;;;;;;5061066;28;20020;-76
2023/07/09 01:01:10;;;;;;;0.10;0.10;;;17.10;99.90;;;;;;5043140;28;20036;-85
2023/07/09 01:03:43;;;;;;;0.10;0.10;;;17.10;99.90;;;;;;5059257;28;20036;-73
2023/07/09 01:06:10;;;;;;;0.10;0.10;;;16.60;99.90;;;;;;5040834;28;20028;-74
2023/07/09 01:08:41;;;;;;;0.63;0.63;;;16.70;99.90;;;;;;5059907;28;20046;-82
2023/07/09 01:11:20;;;;;;;0.10;0.10;;;16.80;99.90;;;;;;5060260;28;20522;-73
2023/07/09 01:13:51;;;;;;;0.20;0.20;;;16.80;99.90;;;;;;5059327;28;20025;-74
2023/07/09 01:16:18;;;;;;;0.40;0.40;;;16.20;99.90;;;;;;5060389;28;20027;-78
2023/07/09 01:18:43;;;;;;;0.10;0.10;;;16.80;99.90;;;;;;5059898;28;20527;-74
2023/07/09 01:21:15;;;;;;;0.10;0.10;;;16.60;99.90;;;;;;5059037;28;20040;-76
2023/07/09 01:23:43;;;;;;;0.10;0.10;;;16.70;99.90;;;;;;5060024;28;20691;-74
2023/07/09 01:26:11;;;;;;;5.80;5.57;;;16.50;99.90;;;;;;5059776;28;20697;-74
2023/07/09 01:28:37;;;;;;;0.35;0.35;;;16.60;99.90;;;;;;5059948;28;20186;-79
2023/07/09 01:31:04;;;;;;;1.10;1.10;;;16.70;99.90;;;;;;5060068;28;20033;-81
2023/07/09 01:33:30;;;;;;;0.10;0.10;;;16.70;99.90;;;;;;5059131;28;20017;-73
2023/07/09 01:36:00;;;;;;;0.65;0.65;;;16.70;99.90;;;;;;5058747;28;20229;-74
2023/07/09 01:38:30;;;;;;;0.15;0.15;;;16.30;99.90;;;;;;5058854;28;20017;-75
2023/07/09 01:40:56;;;;;;;0.30;0.30;;;16.40;99.90;;;;;;5058873;28;20562;-74
2023/07/09 01:43:24;;;;;;;0.20;0.20;;;16.50;99.90;;;;;;5059229;28;20017;-76
2023/07/09 01:45:50;;;;;;;0.10;0.10;;;16.80;99.90;;;;;;5058588;28;20036;-74
2023/07/09 01:48:16;;;;;;;0.20;0.20;;;16.90;99.90;;;;;;5058562;28;20066;-75
2023/07/09 01:50:43;;;;;;;0.10;0.10;;;17.30;99.90;;;;;;5058460;28;20025;-75
2023/07/09 01:53:11;;;;;;;0.15;0.15;;;16.90;99.90;;;;;;5059216;28;20036;-81
2023/07/09 01:55:37;;;;;;;0.10;0.10;;;17.00;99.90;;;;;;5059430;28;20601;-77
2023/07/09 01:58:07;;;;;;;0.20;0.20;;;17.30;99.90;;;;;;5059063;28;20028;-74
2023/07/09 02:00:37;;;;;;;0.10;0.10;;;17.00;99.90;;;;;;5059515;28;20056;-73
2023/07/09 02:03:07;;;;;;;0.10;0.10;;;17.20;99.90;;;;;;5060592;28;20719;-82
2023/07/09 02:05:33;;;;;;;0.55;0.55;;;17.30;99.90;;;;;;5059647;28;20064;-81
2023/07/09 02:07:59;;;;;;;0.10;0.10;;;17.60;99.90;;;;;;5059621;28;20043;-79
2023/07/09 02:10:25;;;;;;;0.10;0.10;;;17.60;99.90;;;;;;5040937;28;20783;-78
2023/07/09 02:12:51;;;;;;;0.20;0.20;;;18.00;99.90;;;;;;5041010;28;20028;-74
2023/07/09 02:15:17;;;;;;;0.20;0.20;;;18.10;99.90;;;;;;5040896;28;20041;-76
2023/07/09 02:17:43;;;;;;;3.85;3.30;;;17.40;99.90;;;;;;5058530;28;20099;-72
2023/07/09 02:20:10;;;;;;;0.10;0.10;;;17.00;99.90;;;;;;5058928;28;20759;-75
2023/07/09 02:22:37;;;;;;;2.47;1.90;;;16.60;99.90;;;;;;5040997;28;20108;-77
2023/07/09 02:25:05;;;;;;;0.10;0.10;;;16.20;99.90;;;;;;5057986;28;20705;-73
2023/07/09 02:27:32;;;;;;;0.10;0.10;;;15.90;99.90;;;;;;5058883;28;20028;-74
2023/07/09 02:29:58;;;;;;;1.27;1.17;;;15.90;99.90;;;;;;5057918;28;20024;-73
2023/07/09 02:32:26;;;;;;;0.10;0.10;;;15.60;99.90;;;;;;5047293;28;20059;-74
2023/07/09 02:34:54;;;;;;;5.88;5.45;;;15.50;99.90;;;;;;5046489;28;20020;-82
2023/07/09 02:37:22;;;;;;;0.10;0.10;;;15.30;99.90;;;;;;5047043;28;20029;-73
2023/07/09 02:39:48;;;;;;;0.28;0.28;;;15.20;99.90;;;;;;5038469;28;20099;-75
2023/07/09 02:42:16;;;;;;;0.10;0.10;;;15.20;99.90;;;;;;5038518;28;20032;-81
2023/07/09 02:44:45;;;;;;;0.95;0.73;;;15.20;99.90;;;;;;5020213;28;20060;-81
2023/07/09 02:47:12;;;;;;;0.30;0.30;;;15.00;99.90;;;;;;5038910;28;20051;-87
2023/07/09 02:49:38;;;;;;;0.10;0.10;;;15.00;99.90;;;;;;5042236;28;20021;-80
2023/07/09 02:52:05;;;;;;;0.10;0.10;;;15.00;99.90;;;;;;5030211;28;20056;-74
2023/07/09 02:54:30;;;;;;;1.33;1.30;;;14.90;99.90;;;;;;5049100;28;20037;-80
2023/07/09 02:56:56;;;;;;;0.10;0.10;;;14.90;99.90;;;;;;5048567;28;20704;-80
2023/07/09 02:59:22;;;;;;;0.10;0.10;;;14.90;99.90;;;;;;5027907;28;20112;-75
2023/07/09 03:01:49;;;;;;;0.10;0.10;;;14.70;99.90;;;;;;5029958;28;20033;-74
2023/07/09 03:04:15;;;;;;;0.10;0.10;;;14.70;99.90;;;;;;5041947;28;20110;-75
2023/07/09 03:06:41;;;;;;;0.10;0.10;;;15.30;99.90;;;;;;5038534;28;20671;-75
2023/07/09 03:09:07;;;;;;;0.10;0.10;;;16.00;99.90;;;;;;5038910;28;20029;-75
2023/07/09 03:11:34;;;;;;;1.60;1.50;;;16.60;99.90;;;;;;5021296;28;20021;-75
2023/07/09 03:14:01;;;;;;;0.10;0.10;;;17.50;99.90;;;;;;5038413;28;20019;-73
2023/07/09 03:16:29;;;;;;;0.10;0.10;;;17.90;99.90;;;;;;5038607;28;20263;-82
2023/07/09 03:18:55;;;;;;;0.10;0.10;;;17.90;99.90;;;;;;5039342;28;20028;-93
2023/07/09 03:21:26;;;;;;;0.77;0.77;;;17.60;99.90;;;;;;5041257;28;20032;-75
2023/07/09 03:23:54;;;;;;;0.30;0.30;;;17.70;99.90;;;;;;5040952;28;20265;-93
2023/07/09 03:26:20;;;;;;;0.32;0.32;;;18.10;99.90;;;;;;5043797;28;20028;-92
2023/07/09 03:28:46;;;;;;;0.10;0.10;;;18.50;99.90;;;;;;5046827;28;20021;-94
2023/07/09 03:31:12;;;;;;;0.10;0.10;;;17.80;99.90;;;;;;5045108;28;20017;-80
2023/07/09 03:33:37;;;;;;;0.13;0.13;;;17.80;99.90;;;;;;5043877;28;20656;-82
2023/07/09 03:36:04;;;;;;;0.30;0.30;;;17.40;99.90;;;;;;5043023;28;20017;-80
2023/07/09 03:38:30;;;;;;;0.25;0.25;;;18.10;99.90;;;;;;5025869;28;20029;-80
2023/07/09 03:40:56;;;;;;;0.10;0.10;;;20.40;99.90;;;;;;5043407;28;20033;-78
2023/07/09 03:43:23;;;;;;;0.50;0.50;;;18.50;99.90;;;;;;5043407;28;20082;-82
2023/07/09 03:45:50;;;;;;;0.10;0.10;;;18.60;99.90;;;;;;5025133;28;20029;-81
2023/07/09 03:48:18;;;;;;;0.10;0.10;;;18.90;99.90;;;;;;5025660;28;20019;-79
2023/07/09 03:50:45;;;;;;;0.10;0.10;;;17.90;99.90;;;;;;5048304;28;20021;-74
2023/07/09 03:53:12;;;;;;;0.10;0.10;;;17.20;99.90;;;;;;5061997;28;20059;-75
2023/07/09 03:55:38;;;;;;;1.58;1.55;;;16.90;99.90;;;;;;5043894;28;21287;-76
2023/07/09 03:58:04;;;;;;;0.10;0.10;;;17.40;99.90;;;;;;5061932;28;20502;-76
2023/07/09 04:00:30;;;;;;;0.10;0.10;;;16.90;99.90;;;;;;5061776;28;20097;-78
2023/07/09 04:02:56;;;;;;;0.10;0.10;;;16.70;99.90;;;;;;5061606;28;20091;-83
2023/07/09 04:05:23;;;;;;;0.10;0.10;;;17.00;99.90;;;;;;5062011;28;20057;-83
2023/07/09 04:07:49;;;;;;;0.13;0.13;;;17.00;99.90;;;;;;5062150;28;20053;-78
2023/07/09 04:10:15;;;;;;;0.10;0.10;;;16.60;99.90;;;;;;5065201;28;20097;-75
2023/07/09 04:12:41;;;;;;;0.32;0.32;;;16.10;99.90;;;;;;5065588;28;20028;-79
2023/07/09 04:15:08;;;;;;;0.10;0.10;;;15.70;99.90;;;;;;5067403;28;20009;-75
2023/07/09 04:17:34;;;;;;;0.10;0.10;;;16.40;99.90;;;;;;5067385;28;20805;-75
2023/07/09 04:20:00;;;;;;;0.10;0.10;;;16.60;99.90;;;;;;5064449;28;20021;-75
2023/07/09 04:22:26;;;;;;;0.30;0.30;;;16.20;99.90;;;;;;5064791;28;20020;-83
2023/07/09 04:24:52;;;;;;;0.10;0.10;;;16.60;99.90;;;;;;5065031;28;20027;-82
2023/07/09 04:27:18;;;;;;;0.10;0.10;;;16.80;99.90;;;;;;5064779;28;20021;-83
2023/07/09 04:29:44;;;;;;;0.85;0.85;;;20.30;99.90;;;;;;5044689;28;20024;-79
2023/07/09 04:32:15;;;;;;;0.10;0.10;;;17.40;99.90;;;;;;5063737;28;20047;-77
2023/07/09 04:34:41;;;;;;;0.10;0.10;;;18.20;99.90;;;;;;5062111;28;20062;-78
2023/07/09 04:37:09;;;;;;;0.25;0.25;;;18.40;99.90;;;;;;5059856;28;20655;-74
2023/07/09 04:39:36;;;;;;;0.10;0.10;;;18.70;99.90;;;;;;5061134;28;20669;-75
2023/07/09 04:42:02;;;;;;;0.10;0.10;;;18.70;99.90;;;;;;5061851;28;20028;-75
2023/07/09 04:44:28;;;;;;;0.10;0.10;;;18.30;99.90;;;;;;5060862;28;20096;-82
2023/07/09 04:46:54;;;;;;;0.10;0.10;;;18.60;99.90;;;;;;5061116;28;20020;-85
2023/07/09 04:49:20;;;;;;;0.10;0.10;;;18.90;99.90;;;;;;5061567;28;20264;-89
2023/07/09 04:51:46;;;;;;;0.10;0.10;;;19.30;99.90;;;;;;5061215;28;20104;-74
2023/07/09 04:54:14;;;;;;;0.10;0.10;;;19.50;99.90;;;;;;5061815;28;20032;-75
2023/07/09 04:56:44;;;;;;;0.10;0.10;;;19.70;99.90;;;;;;5062123;28;20094;-75
2023/07/09 04:59:10;;;;;;;0.10;0.10;;;19.90;99.90;;;;;;5062602;28;20029;-80
2023/07/09 05:01:36;;;;;;;0.10;0.10;;;19.90;99.90;;;;;;5061767;28;20655;-79
2023/07/09 05:04:02;;;;;;;0.10;0.10;;;19.10;99.90;;;;;;5063925;28;20044;-73
2023/07/09 05:06:28;;;;;;;0.10;0.10;;;20.10;99.90;;;;;;5062362;28;20067;-73
2023/07/09 05:08:53;;;;;;;0.10;0.10;;;20.10;99.90;;;;;;5061312;28;20023;-73
2023/07/09 05:11:19;;;;;;;0.85;0.85;;;20.30;99.90;;;;;;5061211;28;20213;-74
2023/07/09 05:13:45;;;;;;;0.50;0.50;;;20.00;99.90;;;;;;5062735;28;20099;-78
2023/07/09 05:16:11;;;;;;;0.10;0.10;;;22.00;99.90;;;;;;5043253;28;20036;-74
2023/07/09 05:18:37;;;;;;;0.10;0.10;;;20.60;99.90;;;;;;5063169;28;20553;-73
2023/07/09 05:21:03;;;;;;;0.22;0.22;;;20.60;99.90;;;;;;5041130;28;20063;-74
2023/07/09 05:23:29;;;;;;;0.10;0.10;;;20.60;99.90;;;;;;5059425;28;20683;-74
2023/07/09 05:25:59;;;;;;;0.30;0.30;;;20.30;99.90;;;;;;5025998;28;20522;-75
2023/07/09 05:28:25;;;;;;;0.10;0.10;;;19.90;99.90;;;;;;5059701;28;20347;-74
2023/07/09 05:30:51;;;;;;;0.70;0.70;;;20.00;99.90;;;;;;5041403;28;20778;-73
2023/07/09 05:33:18;;;;;;;2.35;2.15;;;20.50;99.90;;;;;;5060155;28;20012;-88
2023/07/09 05:35:44;;;;;;;0.10;0.10;;;20.50;99.90;;;;;;5060559;28;20036;-75
2023/07/09 05:38:10;;;;;;;0.17;0.17;;;20.50;99.90;;;;;;5059843;28;20021;-82
2023/07/09 05:40:36;;;;;;;0.10;0.10;;;20.90;99.90;;;;;;5060110;28;20086;-72
2023/07/09 05:43:01;;;;;;;0.00;0.00;;;21.00;99.90;;;;;;5060317;28;20085;-73
2023/07/09 05:45:27;;;;;;;1.60;1.50;;;20.70;99.90;;;;;;5060049;28;20024;-73
2023/07/09 05:47:53;;;;;;;0.00;0.00;;;20.50;99.90;;;;;;5062022;28;20380;-73
2023/07/09 05:50:19;;;;;;;0.10;0.10;;;;;;;;;;5042645;28;20517;-79
2023/07/09 05:52:45;;;;;;;0.10;0.10;;;20.90;99.90;;;;;;5061292;28;20016;-73
2023/07/09 05:55:11;;;;;;;3.53;1.75;;;21.10;99.90;;;;;;5063013;28;20392;-75
2023/07/09 05:57:38;;;;;;;0.10;0.10;;;21.00;99.90;;;;;;5041973;28;20020;-78
2023/07/09 06:00:05;;;;;;;1.45;1.35;;;20.90;99.90;;;;;;5061855;28;20016;-79
2023/07/09 06:02:30;;;;;;;0.10;0.10;;;20.90;99.90;;;;;;5061128;28;20044;-75
2023/07/09 06:04:58;;;;;;;0.20;0.20;;;20.60;99.90;;;;;;5059392;28;20531;-73
2023/07/09 06:07:24;;;;;;;0.10;0.10;;;20.30;99.90;;;;;;5042475;28;20025;-88
2023/07/09 06:09:49;;;;;;;0.30;0.30;;;20.70;99.90;;;;;;5060913;28;20076;-82
2023/07/09 06:12:15;;;;;;;0.10;0.10;;;20.90;99.90;;;;;;5059162;28;20105;-76
2023/07/09 06:14:41;;;;;;;0.10;0.10;;;21.20;99.90;;;;;;5059157;28;20016;-89
2023/07/09 06:17:07;;;;;;;0.68;0.68;;;21.50;99.90;;;;;;5058928;28;20051;-87
2023/07/09 06:19:33;;;;;;;0.10;0.10;;;21.40;99.90;;;;;;5040731;28;20118;-75
2023/07/09 06:21:59;;;;;;;0.35;0.35;;;21.50;99.90;;;;;;5041837;28;20655;-82
2023/07/09 06:24:25;;;;;;;0.10;0.10;;;21.70;99.90;;;;;;5060860;28;20028;-84
2023/07/09 06:26:50;;;;;;;0.32;0.22;;;21.40;99.90;;;;;;5059682;28;20074;-81
2023/07/09 06:29:16;;;;;;;3.67;3.40;;;21.60;99.90;;;;;;5061666;28;20024;-85
2023/07/09 06:31:42;;;;;;;0.10;0.10;;;21.80;99.90;;;;;;5061317;28;20016;-82
2023/07/09 06:34:09;;;;;;;0.10;0.10;;;21.40;99.90;;;;;;5059016;28;20475;-83
2023/07/09 06:36:36;;;;;;;0.10;0.10;;;21.60;99.90;;;;;;5040866;28;20055;-75
2023/07/09 06:39:02;;;;;;;0.13;0.13;;;21.70;99.90;;;;;;5059592;28;20100;-84
2023/07/09 06:41:28;;;;;;;0.40;0.40;;;21.80;99.90;;;;;;5059201;28;20024;-82
2023/07/09 06:43:54;;;;;;;1.50;1.40;;;21.40;99.90;;;;;;5058595;28;20016;-82
2023/07/09 06:46:24;;;;;;;0.10;0.10;;;21.30;99.90;;;;;;5069587;28;20074;-74
2023/07/09 06:48:51;;;;;;;0.63;0.63;;;21.10;99.90;;;;;;5073886;28;20162;-73
2023/07/09 06:51:17;;;;;;;0.10;0.10;;;21.10;99.90;;;;;;5067548;28;20029;-73
2023/07/09 06:53:47;;;;;;;0.40;0.40;;;20.90;99.90;;;;;;5059514;28;20095;-74
2023/07/09 06:56:13;;;;;;;0.10;0.10;;;21.00;99.90;;;;;;5057955;28;20036;-72
2023/07/09 06:58:39;;;;;;;1.00;1.00;;;21.20;99.90;;;;;;5058566;28;20015;-74
2023/07/09 07:01:05;;;;;;;0.10;0.10;;;21.30;99.90;;;;;;5059863;28;20033;-73
2023/07/09 07:03:32;;;;;;;0.40;0.40;;;21.50;99.90;;;;;;5061062;28;20051;-74
2023/07/09 07:05:58;;;;;;;0.10;0.10;;;21.50;99.90;;;;;;5062390;28;20123;-82
2023/07/09 07:08:25;;;;;;;0.20;0.20;;;21.40;99.90;;;;;;5064547;28;20111;-78
2023/07/09 07:11:01;;;;;;;1.27;1.25;;;21.60;99.90;;;;;;5062696;28;20693;-72
2023/07/09 07:13:29;;;;;;;0.20;0.20;;;21.60;99.90;;;;;;5045021;28;20115;-74
2023/07/09 07:15:55;;;;;;;0.10;0.10;;;21.60;99.90;;;;;;5063343;28;20025;-74
2023/07/09 07:18:20;;;;;;;1.73;1.65;;;21.60;99.90;;;;;;5063210;28;20024;-80
2023/07/09 07:20:46;;;;;;;3.30;1.23;;;21.80;99.90;;;;;;5061921;28;20043;-80
2023/07/09 07:23:12;;;;;;;0.30;0.30;;;21.80;99.90;;;;;;5062824;28;20021;-73
2023/07/09 07:25:38;;;;;;;0.80;0.80;;;21.90;99.90;;;;;;5062663;28;20020;-74
2023/07/09 07:28:04;;;;;;;0.10;0.10;;;21.90;99.90;;;;;;5062283;28;20086;-73
2023/07/09 07:30:30;;;;;;;0.10;0.10;;;21.90;99.90;;;;;;5035161;28;20036;-72
2023/07/09 07:32:55;;;;;;;1.38;1.27;;;22.00;99.90;;;;;;5057450;28;20052;-84
2023/07/09 07:35:21;;;;;;;0.13;0.13;;;22.10;99.90;;;;;;5061759;28;20032;-74
2023/07/09 07:37:47;;;;;;;1.77;1.65;;;22.10;99.90;;;;;;5061977;28;20082;-75
2023/07/09 07:40:13;;;;;;;0.10;0.10;;;22.20;99.90;;;;;;5061295;28;20063;-73
2023/07/09 07:42:39;;;;;;;0.20;0.20;;;22.30;99.90;;;;;;5062468;28;20040;-79
2023/07/09 07:45:07;;;;;;;0.43;0.43;;;22.40;99.90;;;;;;5061825;28;20043;-73
2023/07/09 07:47:33;;;;;;;1.30;1.20;;;23.00;99.90;;;;;;5061175;28;20027;-73
2023/07/09 07:49:59;;;;;;;0.30;0.30;;;20.10;99.90;;;;;;5061388;28;20017;-84
2023/07/09 07:52:25;;;;;;;0.30;0.30;;;22.90;99.90;;;;;;5061102;28;20025;-81
2023/07/09 07:54:52;;;;;;;0.30;0.30;;;22.90;99.90;;;;;;5061791;28;20048;-89
2023/07/09 07:57:18;;;;;;;0.55;0.55;;;23.00;99.90;;;;;;5061326;28;20025;-75
2023/07/09 07:59:46;;;;;;;0.10;0.10;;;;;;;;;;5062279;28;20095;-87
2023/07/09 08:02:13;;;;;;;0.10;0.10;;;23.10;99.90;;;;;;5042375;28;20036;-80
2023/07/09 08:04:41;;;;;;;0.57;0.55;;;23.30;99.90;;;;;;5032114;28;20072;-77
2023/07/09 08:07:11;;;;;;;1.27;0.43;;;23.50;99.90;;;;;;5041972;28;20017;-81
2023/07/09 08:09:39;;;;;;;0.75;0.70;;;23.60;99.90;;;;;;5041025;28;20574;-73
2023/07/09 08:12:09;;;;;;;0.25;0.25;;;23.60;99.90;;;;;;5022843;28;20659;-72
2023/07/09 08:14:38;;;;;;;0.93;0.93;;;23.80;99.90;;;;;;5049218;28;20029;-84
2023/07/09 08:17:04;;;;;;;0.10;0.10;;;23.70;99.90;;;;;;5047299;28;20025;-76
2023/07/09 08:19:31;;;;;;;2.15;1.95;;;23.80;99.90;;;;;;5039638;28;20017;-73
2023/07/09 08:21:57;;;;;;;0.15;0.15;;;23.80;99.90;;;;;;5040196;28;20552;-73
2023/07/09 08:24:22;;;;;;;4.82;2.60;;;22.40;99.90;;;;;;5024934;28;20024;-71
2023/07/09 08:26:48;;;;;;;0.17;0.17;;;24.10;99.90;;;;;;5058975;28;20112;-73
2023/07/09 08:29:14;;;;;;;0.50;0.50;;;24.10;99.90;;;;;;5054191;28;20068;-78
2023/07/09 08:31:41;;;;;;;0.20;0.20;;;24.20;99.90;;;;;;5040140;28;20017;-73
2023/07/09 08:34:08;;;;;;;0.15;0.15;;;24.40;99.90;;;;;;5039569;28;20111;-72
2023/07/09 08:36:34;;;;;;;0.40;0.40;;;24.20;99.90;;;;;;5022255;28;20033;-73
2023/07/09 08:39:03;;;;;;;0.20;0.20;;;24.40;99.90;;;;;;5038649;28;20021;-78
2023/07/09 08:42:01;;;;;;;2.55;2.45;;;24.60;99.90;;;;;;5033593;28;20037;-72
2023/07/09 08:44:54;;;;;;;0.55;0.55;;;24.50;99.90;;;;;;5031527;28;20029;-75
2023/07/09 08:47:20;;;;;;;;;;;25.00;99.90;;;;;;5020922;28;20112;-82
2023/07/09 08:49:54;;;;;;;1.70;1.60;;;24.80;99.90;;;;;;5029634;28;20031;-72
2023/07/09 08:52:42;;;;;;;0.32;0.32;;;25.00;99.90;;;;;;5035871;28;20029;-72
2023/07/09 08:55:16;;;;;;;1.88;1.77;;;25.10;99.90;;;;;;5030227;28;20029;-71
2023/07/09 08:57:45;;;;;;;0.22;0.22;;;25.20;99.90;;;;;;5029257;28;20312;-71
2023/07/09 09:00:34;;;;;;;0.20;0.20;;;25.10;99.90;;;;;;5030494;28;20060;-74
2023/07/09 09:03:08;;;;;;;3.03;1.65;;;25.40;99.90;;;;;;4945408;28;20034;-71
2023/07/09 09:05:38;;;;;;;0.98;0.90;;;25.40;99.90;;;;;;4965595;28;20034;-81
2023/07/09 09:08:30;;;;;;;2.45;1.98;;;25.30;99.90;;;;;;4968031;28;20121;-71
2023/07/09 09:11:23;;;;;;;4.93;3.70;;;25.50;99.90;;;;;;4966373;28;20023;-80
2023/07/09 09:13:55;;;;;;;1.40;1.30;;;25.60;99.90;;;;;;4950033;28;20043;-72
2023/07/09 09:16:35;;;;;;;1.30;1.15;;;25.60;99.90;;;;;;4962702;28;20042;-73
2023/07/09 09:19:02;;;;;;;0.10;0.10;;;25.60;99.90;;;;;;4963239;28;20030;-74
2023/07/09 09:21:35;;;;;;;0.95;0.95;;;25.80;99.90;;;;;;4968893;28;20057;-73
2023/07/09 09:24:14;;;;;;;;;;;25.80;99.90;;;;;;4959137;28;20018;-75
2023/07/09 09:26:42;;;;;;;2.40;1.55;;;26.10;99.90;;;;;;4959438;28;20408;-74
2023/07/09 09:29:16;;;;;;;0.57;0.57;;;26.10;99.90;;;;;;4959173;28;20042;-75
2023/07/09 09:31:48;;;;;;;0.85;0.85;;;26.40;99.90;;;;;;4960122;28;20708;-87
2023/07/09 09:34:37;;;;;;;0.10;0.10;;;26.60;99.90;;;;;;4960375;28;20042;-77
2023/07/09 09:37:11;;;;;;;2.30;2.20;;;26.60;99.90;;;;;;4959700;28;20027;-73
2023/07/09 09:39:38;;;;;;;1.02;0.47;;;26.80;99.90;;;;;;4963910;28;20036;-73
2023/07/09 09:42:11;;;;;;;0.65;0.63;;;27.00;99.20;;;;;;5038401;28;20037;-73
2023/07/09 09:44:43;;;;;;;;;;;27.00;98.80;;;;;;5039546;28;20056;-78
2023/07/09 09:47:13;;;;;;;0.20;0.20;;;27.20;98.50;;;;;;5040154;28;20201;-73
2023/07/09 09:49:44;;;;;;;2.17;1.88;;;27.20;98.60;;;;;;5040062;28;20036;-73
2023/07/09 09:52:15;;;;;;;0.10;0.10;;;27.40;97.60;;;;;;5039864;28;20025;-74
2023/07/09 09:54:52;;;;;;;0.88;0.80;;;27.40;98.10;;;;;;5049096;28;20643;-75
2023/07/09 09:57:22;;;;;;;0.55;0.30;;;27.20;98.80;;;;;;5059477;28;20111;-76
2023/07/09 09:59:48;;;;;;;0.30;0.30;;;27.40;97.20;;;;;;5055725;28;20097;-73
2023/07/09 10:02:20;;;;;;;0.45;0.45;;;27.50;96.90;;;;;;5057551;28;20111;-73
2023/07/09 10:04:47;;;;;;;4.50;4.30;;;27.40;95.30;;;;;;5057678;28;20045;-76
2023/07/09 10:07:24;;;;;;;2.10;1.17;;;27.40;94.70;;;;;;5058738;28;20028;-72
2023/07/09 10:09:52;;;;;;;0.20;0.20;;;27.50;95.60;;;;;;5058465;28;20020;-75
2023/07/09 10:12:48;;;;;;;0.30;0.30;;;27.80;95.30;;;;;;5057798;28;20601;-78
2023/07/09 10:15:26;;;;;;;0.28;0.28;;;28.10;95.60;;;;;;5057408;28;20120;-73
2023/07/09 10:18:26;;;;;;;0.00;0.00;;;28.50;93.80;;;;;;5057275;28;20021;-73
2023/07/09 10:21:14;;;;;;;3.40;2.25;;;28.50;93.10;;;;;;5049556;28;20044;-75
2023/07/09 10:24:09;;;;;;;0.10;0.10;;;28.70;93.20;;;;;;5042669;28;20028;-73
2023/07/09 10:27:04;;;;;;;0.00;0.00;;;28.40;93.00;;;;;;5057600;28;20028;-75
2023/07/09 10:30:07;;;;;;;0.10;0.10;;;28.60;92.70;;;;;;5028161;28;20049;-72
2023/07/09 10:32:53;;;;;;;2.83;0.52;;;29.00;92.60;;;;;;5057984;28;20013;-74
2023/07/09 10:35:37;;;;;;;0.90;0.85;;;29.10;93.30;;;;;;5057556;28;20024;-74
2023/07/09 10:38:27;;;;;;;3.85;0.38;;;29.00;92.20;;;;;;5057859;28;20139;-73
2023/07/09 10:40:57;;;;;;;2.92;0.82;;;29.20;91.00;;;;;;5057825;28;20033;-73
2023/07/09 10:43:35;;;;;;;2.50;1.27;;;29.20;91.60;;;;;;5057666;28;20528;-73
2023/07/09 10:46:09;;;;;;;0.63;0.30;;;28.80;90.20;;;;;;5057570;28;20041;-73
2023/07/09 10:48:43;;;;;;;0.25;0.25;;;29.30;90.30;;;;;;5057802;28;20271;-74
2023/07/09 10:51:36;;;;;;;0.32;0.30;;;30.60;90.50;;;;;;5057315;28;20025;-73
2023/07/09 10:54:02;;;;;;;0.43;0.28;;;29.30;90.40;;;;;;5057599;28;20055;-75
2023/07/09 10:56:33;;;;;;;0.35;0.30;;;29.50;89.70;;;;;;5039806;28;20060;-77
2023/07/09 10:59:29;;;;;;;0.10;0.10;;;29.50;89.70;;;;;;5057689;28;20024;-73
2023/07/09 11:02:06;;;;;;;3.63;1.00;;;29.60;87.40;;;;;;5057332;28;20040;-73
2023/07/09 11:04:56;;;;;;;0.20;0.20;;;29.60;86.10;;;;;;5057206;28;20045;-73
2023/07/09 11:07:38;;;;;;;0.73;0.60;;;29.90;87.20;;;;;;5057921;28;20050;-72
2023/07/09 11:10:16;;;;;;;0.10;0.10;;;30.00;85.90;;;;;;5057357;28;20027;-73
2023/07/09 11:12:46;;;;;;;0.63;0.63;;;30.10;85.40;;;;;;5057841;28;20225;-73
2023/07/09 11:15:27;;;;;;;0.40;0.40;;;30.30;85.00;;;;;;5057730;28;20020;-72
2023/07/09 11:17:57;;;;;;;0.10;0.10;;;30.30;84.60;;;;;;5057591;28;20021;-73
2023/07/09 11:20:32;;;;;;;0.43;0.43;;;28.10;83.50;;;;;;5057605;28;20032;-73
2023/07/09 11:23:20;;;;;;;0.20;0.20;;;30.20;84.70;;;;;;5057733;28;20017;-82
2023/07/09 11:25:49;;;;;;;0.10;0.10;;;30.20;85.30;;;;;;5057471;28;20021;-73
2023/07/09 11:28:15;;;;;;;0.63;0.63;;;30.40;85.20;;;;;;5039561;28;20048;-74
2023/07/09 11:30:53;;;;;;;1.23;0.73;;;30.00;83.90;;;;;;5057373;28;20055;-72
2023/07/09 11:33:29;;;;;;;0.43;0.30;;;30.60;82.50;;;;;;5057015;28;20107;-77
2023/07/09 11:36:25;;;;;;;0.73;0.68;;;30.00;83.40;;;;;;5056907;28;20028;-72
2023/07/09 11:38:52;;;;;;;0.20;0.20;;;31.00;82.20;;;;;;5057393;28;20029;-77
2023/07/09 11:41:41;;;;;;;0.50;0.47;;;31.00;80.20;;;;;;5057161;28;20059;-73
2023/07/09 11:44:12;;;;;;;1.02;0.77;;;31.20;81.60;;;;;;5056702;28;20024;-74
2023/07/09 11:47:04;;;;;;;1.65;1.55;;;31.70;81.70;;;;;;5057845;28;20524;-77
2023/07/09 11:50:05;;;;;;;0.13;0.13;;;32.10;80.40;;;;;;5017596;28;20060;-73
2023/07/09 11:52:40;;;;;;;0.55;0.55;;;32.50;77.80;;;;;;4959653;28;20765;-73
2023/07/09 11:55:21;;;;;;;0.75;0.75;;;32.70;77.60;;;;;;4959161;28;20101;-73
2023/07/09 11:57:57;;;;;;;1.25;0.73;;;33.20;76.70;;;;;;4959394;28;20035;-72
2023/07/09 12:00:25;;;;;;;1.92;1.75;;;33.30;75.60;;;;;;4959145;28;20037;-73
2023/07/09 12:02:51;;;;;;;0.80;0.40;;;33.40;75.90;;;;;;4959201;28;20051;-73
2023/07/09 12:05:26;;;;;;;0.75;0.52;;;33.70;74.90;;;;;;4976783;28;20050;-74
2023/07/09 12:07:52;;;;;;;1.10;0.75;;;33.80;73.50;;;;;;4978590;28;20232;-73
2023/07/09 12:10:24;;;;;;;0.15;0.15;;;33.40;72.60;;;;;;4961813;28;20765;-73
2023/07/09 12:12:55;;;;;;;0.57;0.57;;;33.30;73.10;;;;;;4977978;28;20773;-75
2023/07/09 12:15:27;;;;;;;0.40;0.40;;;33.40;72.80;;;;;;4978685;28;20353;-77
2023/07/09 12:17:55;;;;;;;1.27;1.00;;;33.50;73.20;;;;;;4978595;28;20014;-73
2023/07/09 12:20:21;;;;;;;0.98;0.77;;;33.10;73.30;;;;;;4978274;28;20319;-79
2023/07/09 12:22:46;;;;;;;0.75;0.63;;;33.30;73.40;;;;;;4977986;28;20026;-81
2023/07/09 12:25:23;;;;;;;2.50;1.27;;;33.30;74.10;;;;;;4978309;28;20207;-78
2023/07/09 12:27:49;;;;;;;0.40;0.40;;;33.40;72.60;;;;;;4997124;28;20110;-76
2023/07/09 12:30:15;;;;;;;0.43;0.35;;;33.70;72.10;;;;;;5016605;28;20128;-73
2023/07/09 12:32:47;;;;;;;0.60;0.45;;;33.60;71.50;;;;;;5039870;28;20025;-76
2023/07/09 12:35:15;;;;;;;1.52;1.08;;;33.60;71.30;;;;;;5040025;28;20024;-77
2023/07/09 12:37:46;;;;;;;0.30;0.25;;;33.80;70.90;;;;;;5040060;28;20095;-73
2023/07/09 12:40:16;;;;;;;0.88;0.70;;;34.00;70.30;;;;;;5040142;28;20021;-75
2023/07/09 12:42:43;;;;;;;0.50;0.47;;;35.00;69.70;;;;;;5040050;28;20241;-78
2023/07/09 12:45:30;;;;;;;1.17;0.50;;;34.90;69.40;;;;;;5039520;28;20664;-77
2023/07/09 12:47:56;;;;;;;0.63;0.30;;;34.60;69.30;;;;;;5039890;28;20009;-80
2023/07/09 12:50:32;;;;;;;1.38;0.43;;;35.00;69.70;;;;;;5039933;28;20571;-85
2023/07/09 12:53:17;;;;;;;0.50;0.50;;;34.90;68.30;;;;;;5039758;28;20021;-79
2023/07/09 12:55:45;;;;;;;1.35;1.08;;;35.50;68.40;;;;;;5040260;28;20028;-76
2023/07/09 12:58:23;;;;;;;0.47;0.47;;;36.10;67.10;;;;;;5038612;28;20086;-82
2023/07/09 13:00:51;;;;;;;0.43;0.20;;;35.80;66.40;;;;;;5039579;28;20482;-76
2023/07/09 13:03:25;;;;;;;1.75;0.60;;;35.70;66.80;;;;;;5040402;28;20213;-81